sensor_id;sensor_type;location;lat;lon;timestamp;pressure;altitude;pressure_sealevel;temperature;humidity
46476;BME280;53376;51.114;14.738;2022-09-13T00:09:16;98204.53;;;18.69;53.39
46476;BME280;53376;51.114;14.738;2022-09-13T00:11:59;98200.28;;;18.66;53.59
46476;BME280;53376;51.114;14.738;2022-09-13T00:14:33;98194.34;;;18.63;53.73
46476;BME280;53376;51.114;14.738;2022-09-13T00:17:13;98202.44;;;18.63;53.77
46476;BME280;53376;51.114;14.738;2022-09-13T00:19:41;98193.81;;;18.59;53.58
46476;BME280;53376;51.114;14.738;2022-09-13T00:36:17;98187.91;;;18.46;53.63
46476;BME280;53376;51.114;14.738;2022-09-13T00:38:59;98183.38;;;18.46;53.88
46476;BME280;53376;51.114;14.738;2022-09-13T00:41:39;98181.69;;;18.45;54.04
46476;BME280;53376;51.114;14.738;2022-09-13T00:47:41;98172.91;;;18.43;53.77
46476;BME280;53376;51.114;14.738;2022-09-13T00:50:22;98169.53;;;18.41;53.60
46476;BME280;53376;51.114;14.738;2022-09-13T01:03:39;98142.63;;;18.41;53.80
46476;BME280;53376;51.114;14.738;2022-09-13T01:06:25;98138.22;;;18.40;53.84
46476;BME280;53376;51.114;14.738;2022-09-13T01:09:02;98139.53;;;18.36;53.67
46476;BME280;53376;51.114;14.738;2022-09-13T01:11:46;98140.84;;;18.32;53.67
46476;BME280;53376;51.114;14.738;2022-09-13T01:14:23;98139.31;;;18.29;53.98
46476;BME280;53376;51.114;14.738;2022-09-13T01:31:07;98107.75;;;18.21;53.93
46476;BME280;53376;51.114;14.738;2022-09-13T01:33:56;98104.38;;;18.19;53.95
46476;BME280;53376;51.114;14.738;2022-09-13T01:40:34;98107.34;;;18.16;53.71
46476;BME280;53376;51.114;14.738;2022-09-13T01:57:26;98086.34;;;18.02;54.30
46476;BME280;53376;51.114;14.738;2022-09-13T02:00:11;98076.59;;;18.01;54.20
46476;BME280;53376;51.114;14.738;2022-09-13T02:03:00;98074.06;;;17.99;53.90
46476;BME280;53376;51.114;14.738;2022-09-13T02:05:42;98071.50;;;17.98;54.38
46476;BME280;53376;51.114;14.738;2022-09-13T02:08:41;98067.53;;;17.92;54.28
46476;BME280;53376;51.114;14.738;2022-09-13T02:11:17;98060.31;;;17.93;54.09
46476;BME280;53376;51.114;14.738;2022-09-13T02:24:33;98042.94;;;17.87;54.53
46476;BME280;53376;51.114;14.738;2022-09-13T02:27:19;98049.75;;;17.81;54.42
46476;BME280;53376;51.114;14.738;2022-09-13T02:30:03;98043.00;;;17.77;54.61
46476;BME280;53376;51.114;14.738;2022-09-13T02:32:52;98038.59;;;17.76;54.73
46476;BME280;53376;51.114;14.738;2022-09-13T02:35:37;98039.59;;;17.75;54.47
46476;BME280;53376;51.114;14.738;2022-09-13T02:48:58;98026.59;;;17.70;54.66
46476;BME280;53376;51.114;14.738;2022-09-13T02:51:50;98025.75;;;17.70;54.90
46476;BME280;53376;51.114;14.738;2022-09-13T02:54:35;98033.09;;;17.68;54.88
46476;BME280;53376;51.114;14.738;2022-09-13T02:57:26;98030.84;;;17.63;54.82
46476;BME280;53376;51.114;14.738;2022-09-13T03:00:03;98036.22;;;17.63;54.96
46476;BME280;53376;51.114;14.738;2022-09-13T03:16:58;98020.41;;;17.60;54.78
46476;BME280;53376;51.114;14.738;2022-09-13T03:20:03;98023.94;;;17.61;54.93
46476;BME280;53376;51.114;14.738;2022-09-13T03:23:11;98032.88;;;17.61;54.91
46476;BME280;53376;51.114;14.738;2022-09-13T03:26:16;98030.84;;;17.63;54.88
46476;BME280;53376;51.114;14.738;2022-09-13T03:29:26;98024.66;;;17.63;54.67
46476;BME280;53376;51.114;14.738;2022-09-13T03:42:27;98025.94;;;17.59;54.50
46476;BME280;53376;51.114;14.738;2022-09-13T03:45:13;98025.25;;;17.56;54.96
46476;BME280;53376;51.114;14.738;2022-09-13T03:47:56;98023.53;;;17.55;54.83
46476;BME280;53376;51.114;14.738;2022-09-13T03:50:40;98011.97;;;17.55;54.85
46476;BME280;53376;51.114;14.738;2022-09-13T03:53:24;98011.09;;;17.54;54.72
46476;BME280;53376;51.114;14.738;2022-09-13T03:56:01;98011.56;;;17.50;54.92
46476;BME280;53376;51.114;14.738;2022-09-13T04:09:22;97988.81;;;17.44;54.95
46476;BME280;53376;51.114;14.738;2022-09-13T04:12:02;97995.88;;;17.45;55.00
46476;BME280;53376;51.114;14.738;2022-09-13T04:14:30;97993.88;;;17.47;54.86
46476;BME280;53376;51.114;14.738;2022-09-13T04:17:11;97988.50;;;17.47;54.79
46476;BME280;53376;51.114;14.738;2022-09-13T04:19:39;97991.88;;;17.49;55.12
46476;BME280;53376;51.114;14.738;2022-09-13T04:22:19;98003.78;;;17.47;55.04
46476;BME280;53376;51.114;14.738;2022-09-13T04:24:48;98002.22;;;17.44;55.19
46476;BME280;53376;51.114;14.738;2022-09-13T04:38:01;98007.81;;;17.23;55.65
46476;BME280;53376;51.114;14.738;2022-09-13T04:40:37;98005.84;;;17.25;55.54
46476;BME280;53376;51.114;14.738;2022-09-13T04:43:11;97999.59;;;17.24;55.56
46476;BME280;53376;51.114;14.738;2022-09-13T04:45:52;98003.97;;;17.26;55.35
46476;BME280;53376;51.114;14.738;2022-09-13T04:48:19;97997.63;;;17.27;55.62
46476;BME280;53376;51.114;14.738;2022-09-13T04:51:03;98000.47;;;17.25;55.49
46476;BME280;53376;51.114;14.738;2022-09-13T05:03:54;97997.91;;;17.23;55.58
46476;BME280;53376;51.114;14.738;2022-09-13T05:06:35;97999.91;;;17.21;55.67
46476;BME280;53376;51.114;14.738;2022-09-13T05:09:15;97989.16;;;17.21;55.83
46476;BME280;53376;51.114;14.738;2022-09-13T05:11:43;97984.06;;;17.18;56.07
46476;BME280;53376;51.114;14.738;2022-09-13T05:14:22;97988.44;;;17.19;56.10
46476;BME280;53376;51.114;14.738;2022-09-13T05:16:49;97984.06;;;17.18;56.12
46476;BME280;53376;51.114;14.738;2022-09-13T05:29:59;97985.75;;;17.19;56.54
46476;BME280;53376;51.114;14.738;2022-09-13T05:32:39;97986.91;;;17.17;56.55
46476;BME280;53376;51.114;14.738;2022-09-13T05:35:07;97982.38;;;17.17;56.55
46476;BME280;53376;51.114;14.738;2022-09-13T05:37:48;97993.13;;;17.17;56.65
46476;BME280;53376;51.114;14.738;2022-09-13T05:40:16;97989.44;;;17.18;56.44
46476;BME280;53376;51.114;14.738;2022-09-13T05:42:55;97998.22;;;17.20;56.68
46476;BME280;53376;51.114;14.738;2022-09-13T05:45:25;97991.84;;;17.21;56.39
46476;BME280;53376;51.114;14.738;2022-09-13T05:58:32;97967.53;;;17.23;56.77
46476;BME280;53376;51.114;14.738;2022-09-13T06:01:17;97971.06;;;17.23;56.84
46476;BME280;53376;51.114;14.738;2022-09-13T06:03:53;97962.31;;;17.21;56.74
46476;BME280;53376;51.114;14.738;2022-09-13T06:06:34;97962.31;;;17.21;57.08
46476;BME280;53376;51.114;14.738;2022-09-13T06:09:01;97954.09;;;17.23;56.90
46476;BME280;53376;51.114;14.738;2022-09-13T06:11:41;97958.03;;;17.29;57.05
46476;BME280;53376;51.114;14.738;2022-09-13T06:24:25;97954.13;;;17.51;56.81
46476;BME280;53376;51.114;14.738;2022-09-13T06:27:05;97948.31;;;17.55;57.19
46476;BME280;53376;51.114;14.738;2022-09-13T06:29:45;97940.97;;;17.58;56.98
46476;BME280;53376;51.114;14.738;2022-09-13T06:32:12;97938.50;;;17.64;56.96
46476;BME280;53376;51.114;14.738;2022-09-13T06:34:52;97931.31;;;17.65;57.22
46476;BME280;53376;51.114;14.738;2022-09-13T06:51:03;97927.00;;;17.72;57.02
46476;BME280;53376;51.114;14.738;2022-09-13T06:53:48;97934.09;;;17.73;57.12
46476;BME280;53376;51.114;14.738;2022-09-13T06:56:18;97932.81;;;17.77;57.05
46476;BME280;53376;51.114;14.738;2022-09-13T06:59:01;97941.72;;;17.78;57.12
46476;BME280;53376;51.114;14.738;2022-09-13T07:01:38;97936.16;;;17.79;57.12
46476;BME280;53376;51.114;14.738;2022-09-13T07:04:20;97933.19;;;17.82;57.54
46476;BME280;53376;51.114;14.738;2022-09-13T07:06:49;97937.25;;;17.86;57.35
46476;BME280;53376;51.114;14.738;2022-09-13T07:16:36;97922.22;;;17.94;57.48
46476;BME280;53376;51.114;14.738;2022-09-13T07:19:18;97927.31;;;17.97;57.45
46476;BME280;53376;51.114;14.738;2022-09-13T07:22:01;97924.34;;;18.00;57.68
46476;BME280;53376;51.114;14.738;2022-09-13T07:24:35;97927.72;;;18.02;58.03
46476;BME280;53376;51.114;14.738;2022-09-13T07:27:15;97921.22;;;18.04;57.85
46476;BME280;53376;51.114;14.738;2022-09-13T07:29:42;97925.44;;;18.07;58.05
46476;BME280;53376;51.114;14.738;2022-09-13T07:42:55;97917.84;;;18.20;58.97
46476;BME280;53376;51.114;14.738;2022-09-13T07:45:35;97917.50;;;18.24;59.00
46476;BME280;53376;51.114;14.738;2022-09-13T07:48:03;97917.91;;;18.29;58.86
46476;BME280;53376;51.114;14.738;2022-09-13T07:50:42;97926.34;;;18.34;58.92
46476;BME280;53376;51.114;14.738;2022-09-13T07:53:09;97926.06;;;18.37;58.67
46476;BME280;53376;51.114;14.738;2022-09-13T07:55:51;97916.66;;;18.41;58.55
46476;BME280;53376;51.114;14.738;2022-09-13T08:12:00;97930.94;;;18.60;58.12
46476;BME280;53376;51.114;14.738;2022-09-13T08:14:40;97922.56;;;18.63;58.08
46476;BME280;53376;51.114;14.738;2022-09-13T08:17:07;97917.88;;;18.65;57.90
46476;BME280;53376;51.114;14.738;2022-09-13T08:19:47;97924.94;;;18.66;57.61
46476;BME280;53376;51.114;14.738;2022-09-13T08:22:21;97919.56;;;18.66;57.66
46476;BME280;53376;51.114;14.738;2022-09-13T08:25:01;97914.16;;;18.66;57.36
46476;BME280;53376;51.114;14.738;2022-09-13T08:37:45;97914.50;;;18.63;58.20
46476;BME280;53376;51.114;14.738;2022-09-13T08:40:29;97914.50;;;18.63;58.32
46476;BME280;53376;51.114;14.738;2022-09-13T08:43:27;97912.50;;;18.65;58.57
46476;BME280;53376;51.114;14.738;2022-09-13T08:46:21;97914.16;;;18.66;59.11
46476;BME280;53376;51.114;14.738;2022-09-13T08:49:12;97916.72;;;18.67;59.22
46476;BME280;53376;51.114;14.738;2022-09-13T08:51:52;97909.50;;;18.68;59.47
46476;BME280;53376;51.114;14.738;2022-09-13T09:05:17;97914.25;;;18.74;60.13
46476;BME280;53376;51.114;14.738;2022-09-13T09:08:05;97919.31;;;18.77;60.00
46476;BME280;53376;51.114;14.738;2022-09-13T09:10:47;97910.22;;;18.78;60.38
46476;BME280;53376;51.114;14.738;2022-09-13T09:13:34;97912.63;;;18.81;60.39
46476;BME280;53376;51.114;14.738;2022-09-13T09:16:32;97913.31;;;18.83;60.75
46476;BME280;53376;51.114;14.738;2022-09-13T09:29:57;97936.22;;;18.88;60.02
46476;BME280;53376;51.114;14.738;2022-09-13T09:32:49;97925.16;;;18.91;60.31
46476;BME280;53376;51.114;14.738;2022-09-13T09:35:48;97925.84;;;18.93;60.51
46476;BME280;53376;51.114;14.738;2022-09-13T09:38:38;97917.47;;;18.96;60.62
46476;BME280;53376;51.114;14.738;2022-09-13T09:41:25;97924.06;;;19.01;60.44
46476;BME280;53376;51.114;14.738;2022-09-13T09:44:20;97920.03;;;19.06;60.89
46476;BME280;53376;51.114;14.738;2022-09-13T09:47:02;97916.03;;;19.10;60.57
46476;BME280;53376;51.114;14.738;2022-09-13T09:56:51;97906.84;;;19.21;59.46
46476;BME280;53376;51.114;14.738;2022-09-13T09:59:33;97904.81;;;19.23;59.39
46476;BME280;53376;51.114;14.738;2022-09-13T10:02:20;97896.25;;;19.27;59.31
46476;BME280;53376;51.114;14.738;2022-09-13T10:04:57;97893.91;;;19.32;58.99
46476;BME280;53376;51.114;14.738;2022-09-13T10:07:40;97883.50;;;19.38;59.29
46476;BME280;53376;51.114;14.738;2022-09-13T10:10:20;97876.81;;;19.42;59.03
46476;BME280;53376;51.114;14.738;2022-09-13T10:23:35;97864.59;;;19.64;58.63
46476;BME280;53376;51.114;14.738;2022-09-13T10:26:18;97861.38;;;19.69;58.55
46476;BME280;53376;51.114;14.738;2022-09-13T10:28:59;97852.97;;;19.72;58.38
46476;BME280;53376;51.114;14.738;2022-09-13T10:31:47;97845.25;;;19.77;58.13
46476;BME280;53376;51.114;14.738;2022-09-13T10:34:25;97837.34;;;19.84;57.99
46476;BME280;53376;51.114;14.738;2022-09-13T10:51:07;97848.53;;;20.30;56.68
46476;BME280;53376;51.114;14.738;2022-09-13T10:54:16;97852.06;;;20.39;56.76
46476;BME280;53376;51.114;14.738;2022-09-13T10:56:59;97848.38;;;20.48;57.66
46476;BME280;53376;51.114;14.738;2022-09-13T10:59:28;97854.59;;;20.57;57.27
46476;BME280;53376;51.114;14.738;2022-09-13T11:02:40;97857.28;;;20.65;57.17
46476;BME280;53376;51.114;14.738;2022-09-13T11:05:39;97854.78;;;20.72;56.61
46476;BME280;53376;51.114;14.738;2022-09-13T11:19:17;97828.53;;;21.05;56.10
46476;BME280;53376;51.114;14.738;2022-09-13T11:22:25;97815.31;;;21.19;55.98
46476;BME280;53376;51.114;14.738;2022-09-13T11:25:16;97807.50;;;21.32;55.74
46476;BME280;53376;51.114;14.738;2022-09-13T11:28:21;97807.44;;;21.40;54.61
46476;BME280;53376;51.114;14.738;2022-09-13T11:31:14;97800.13;;;21.49;54.43
46476;BME280;53376;51.114;14.738;2022-09-13T11:44:51;97785.28;;;22.00;53.87
46476;BME280;53376;51.114;14.738;2022-09-13T11:47:52;97784.22;;;22.09;53.59
46476;BME280;53376;51.114;14.738;2022-09-13T11:50:47;97772.84;;;22.14;52.76
46476;BME280;53376;51.114;14.738;2022-09-13T11:56:49;97781.56;;;22.24;52.98
46476;BME280;53376;51.114;14.738;2022-09-13T12:10:26;97770.63;;;22.70;51.64
46476;BME280;53376;51.114;14.738;2022-09-13T12:13:16;97771.22;;;22.81;50.59
46476;BME280;53376;51.114;14.738;2022-09-13T12:15:55;97773.44;;;22.92;50.94
46476;BME280;53376;51.114;14.738;2022-09-13T12:18:42;97759.78;;;23.00;51.15
46476;BME280;53376;51.114;14.738;2022-09-13T12:21:22;97753.44;;;23.08;51.37
46476;BME280;53376;51.114;14.738;2022-09-13T12:24:12;97757.94;;;23.16;51.43
46476;BME280;53376;51.114;14.738;2022-09-13T12:26:55;97754.66;;;23.21;50.45
46476;BME280;53376;51.114;14.738;2022-09-13T12:37:15;97739.81;;;23.53;50.69
46476;BME280;53376;51.114;14.738;2022-09-13T12:40:32;97740.97;;;23.65;50.12
46476;BME280;53376;51.114;14.738;2022-09-13T12:43:41;97745.22;;;23.75;50.72
46476;BME280;53376;51.114;14.738;2022-09-13T12:47:08;97745.75;;;23.85;49.94
46476;BME280;53376;51.114;14.738;2022-09-13T12:50:18;97728.78;;;23.98;49.60
46476;BME280;53376;51.114;14.738;2022-09-13T13:03:58;97730.16;;;24.37;49.34
46476;BME280;53376;51.114;14.738;2022-09-13T13:06:50;97725.03;;;24.49;49.33
46476;BME280;53376;51.114;14.738;2022-09-13T13:09:38;97725.88;;;24.56;48.97
46476;BME280;53376;51.114;14.738;2022-09-13T13:12:34;97729.03;;;24.60;48.31
46476;BME280;53376;51.114;14.738;2022-09-13T13:18:45;97717.69;;;24.78;47.92
46476;BME280;53376;51.114;14.738;2022-09-13T13:21:34;97716.91;;;24.91;47.83
46476;BME280;53376;51.114;14.738;2022-09-13T13:31:00;97704.47;;;25.17;47.08
46476;BME280;53376;51.114;14.738;2022-09-13T13:33:47;97699.47;;;25.20;47.19
46476;BME280;53376;51.114;14.738;2022-09-13T13:36:23;97701.16;;;25.15;47.22
46476;BME280;53376;51.114;14.738;2022-09-13T13:39:33;97692.31;;;25.06;46.80
46476;BME280;53376;51.114;14.738;2022-09-13T13:42:26;97688.53;;;25.00;47.15
46476;BME280;53376;51.114;14.738;2022-09-13T13:45:16;97693.13;;;25.00;47.33
46476;BME280;53376;51.114;14.738;2022-09-13T13:58:36;97689.28;;;24.87;46.93
46476;BME280;53376;51.114;14.738;2022-09-13T14:01:26;97696.41;;;24.88;47.60
46476;BME280;53376;51.114;14.738;2022-09-13T14:04:36;97690.97;;;24.88;47.07
46476;BME280;53376;51.114;14.738;2022-09-13T14:11:06;97683.34;;;25.12;47.22
46476;BME280;53376;51.114;14.738;2022-09-13T14:24:19;97676.22;;;26.13;46.06
46476;BME280;53376;51.114;14.738;2022-09-13T14:27:20;97675.34;;;26.33;45.46
46476;BME280;53376;51.114;14.738;2022-09-13T14:30:04;97665.84;;;26.55;44.58
46476;BME280;53376;51.114;14.738;2022-09-13T14:32:53;97667.31;;;26.78;44.02
46476;BME280;53376;51.114;14.738;2022-09-13T14:35:42;97671.84;;;26.98;43.90
46476;BME280;53376;51.114;14.738;2022-09-13T14:38:12;97663.16;;;27.14;44.16
46476;BME280;53376;51.114;14.738;2022-09-13T14:41:11;97655.34;;;27.25;43.63
46476;BME280;53376;51.114;14.738;2022-09-13T14:50:58;97645.28;;;27.25;42.37
46476;BME280;53376;51.114;14.738;2022-09-13T14:53:44;97657.34;;;27.04;42.80
46476;BME280;53376;51.114;14.738;2022-09-13T14:56:28;97659.72;;;26.80;43.40
46476;BME280;53376;51.114;14.738;2022-09-13T14:59:27;97647.22;;;26.52;43.63
46476;BME280;53376;51.114;14.738;2022-09-13T15:02:15;97655.66;;;26.31;44.25
46476;BME280;53376;51.114;14.738;2022-09-13T15:04:59;97645.03;;;26.09;44.96
46476;BME280;53376;51.114;14.738;2022-09-13T15:17:56;97643.09;;;25.42;46.79
46476;BME280;53376;51.114;14.738;2022-09-13T15:20:47;97639.06;;;25.32;47.15
46476;BME280;53376;51.114;14.738;2022-09-13T15:23:31;97639.44;;;25.22;47.34
46476;BME280;53376;51.114;14.738;2022-09-13T15:26:09;97645.09;;;25.14;47.26
46476;BME280;53376;51.114;14.738;2022-09-13T15:28:55;97646.94;;;25.06;47.65
46476;BME280;53376;51.114;14.738;2022-09-13T15:31:31;97649.63;;;25.00;47.59
46476;BME280;53376;51.114;14.738;2022-09-13T15:44:45;97648.91;;;24.71;48.97
46476;BME280;53376;51.114;14.738;2022-09-13T15:47:25;97656.81;;;24.66;48.97
46476;BME280;53376;51.114;14.738;2022-09-13T15:49:53;97662.81;;;24.61;48.84
46476;BME280;53376;51.114;14.738;2022-09-13T15:52:32;97662.78;;;24.54;48.82
46476;BME280;53376;51.114;14.738;2022-09-13T15:54:59;97664.22;;;24.50;48.56
46476;BME280;53376;51.114;14.738;2022-09-13T15:57:43;97661.28;;;24.45;48.88
46476;BME280;53376;51.114;14.738;2022-09-13T16:00:22;97655.59;;;24.40;48.48
46476;BME280;53376;51.114;14.738;2022-09-13T16:13:33;97664.00;;;24.17;48.96
46476;BME280;53376;51.114;14.738;2022-09-13T16:16:15;97669.84;;;24.13;49.16
46476;BME280;53376;51.114;14.738;2022-09-13T16:18:42;97656.03;;;24.08;49.20
46476;BME280;53376;51.114;14.738;2022-09-13T16:21:24;97656.44;;;24.05;49.22
46476;BME280;53376;51.114;14.738;2022-09-13T16:23:52;97657.88;;;24.01;49.18
46476;BME280;53376;51.114;14.738;2022-09-13T16:26:33;97661.38;;;23.95;49.42
46476;BME280;53376;51.114;14.738;2022-09-13T16:39:17;97655.59;;;23.83;49.30
46476;BME280;53376;51.114;14.738;2022-09-13T16:41:57;97655.78;;;23.81;49.50
46476;BME280;53376;51.114;14.738;2022-09-13T16:44:37;97658.06;;;23.78;49.67
46476;BME280;53376;51.114;14.738;2022-09-13T16:47:05;97657.41;;;23.76;50.18
46476;BME280;53376;51.114;14.738;2022-09-13T16:49:45;97656.78;;;23.74;49.84
46476;BME280;53376;51.114;14.738;2022-09-13T16:52:13;97652.59;;;23.71;50.02
46476;BME280;53376;51.114;14.738;2022-09-13T17:05:10;97667.88;;;23.57;50.28
46476;BME280;53376;51.114;14.738;2022-09-13T17:07:53;97669.97;;;23.55;50.43
46476;BME280;53376;51.114;14.738;2022-09-13T17:10:20;97662.00;;;23.54;50.42
46476;BME280;53376;51.114;14.738;2022-09-13T17:13:00;97656.97;;;23.50;49.94
46476;BME280;53376;51.114;14.738;2022-09-13T17:15:27;97668.03;;;23.49;50.50
46476;BME280;53376;51.114;14.738;2022-09-13T17:18:07;97669.25;;;23.46;50.02
46476;BME280;53376;51.114;14.738;2022-09-13T17:20:42;97666.09;;;23.43;50.16
46476;BME280;53376;51.114;14.738;2022-09-13T17:33:54;97663.88;;;23.31;50.51
46476;BME280;53376;51.114;14.738;2022-09-13T17:36:37;97664.94;;;23.30;50.40
46476;BME280;53376;51.114;14.738;2022-09-13T17:39:12;97665.28;;;23.27;50.10
46476;BME280;53376;51.114;14.738;2022-09-13T17:41:52;97663.63;;;23.26;50.48
46476;BME280;53376;51.114;14.738;2022-09-13T17:44:20;97661.31;;;23.23;50.64
46476;BME280;53376;51.114;14.738;2022-09-13T17:47:00;97653.53;;;23.20;50.00
46476;BME280;53376;51.114;14.738;2022-09-13T18:00:23;97651.97;;;23.11;50.70
46476;BME280;53376;51.114;14.738;2022-09-13T18:07:57;97651.72;;;23.06;50.75
46476;BME280;53376;51.114;14.738;2022-09-13T18:10:31;97648.34;;;23.03;51.43
46476;BME280;53376;51.114;14.738;2022-09-13T18:27:25;97637.44;;;22.82;51.66
46476;BME280;53376;51.114;14.738;2022-09-13T18:29:52;97649.50;;;22.79;52.06
46476;BME280;53376;51.114;14.738;2022-09-13T18:32:27;97636.34;;;22.76;52.01
46476;BME280;53376;51.114;14.738;2022-09-13T18:35:11;97643.00;;;22.74;51.95
46476;BME280;53376;51.114;14.738;2022-09-13T18:37:45;97646.06;;;22.70;52.15
46476;BME280;53376;51.114;14.738;2022-09-13T18:40:25;97650.84;;;22.68;51.82
46476;BME280;53376;51.114;14.738;2022-09-13T18:53:09;97645.72;;;22.59;52.03
46476;BME280;53376;51.114;14.738;2022-09-13T18:55:49;97640.88;;;22.54;52.31
46476;BME280;53376;51.114;14.738;2022-09-13T18:58:30;97644.13;;;22.49;52.31
46476;BME280;53376;51.114;14.738;2022-09-13T19:01:00;97646.00;;;22.49;51.91
46476;BME280;53376;51.114;14.738;2022-09-13T19:03:46;97645.34;;;22.47;52.33
46476;BME280;53376;51.114;14.738;2022-09-13T19:06:23;97647.38;;;22.45;52.24
46476;BME280;53376;51.114;14.738;2022-09-13T19:19:35;97638.03;;;22.32;52.83
46476;BME280;53376;51.114;14.738;2022-09-13T19:22:16;97648.22;;;22.30;52.42
46476;BME280;53376;51.114;14.738;2022-09-13T19:24:43;97646.06;;;22.26;52.61
46476;BME280;53376;51.114;14.738;2022-09-13T19:27:23;97639.16;;;22.23;52.81
46476;BME280;53376;51.114;14.738;2022-09-13T19:29:51;97646.63;;;22.21;52.85
46476;BME280;53376;51.114;14.738;2022-09-13T19:46:32;97639.34;;;22.06;53.46
46476;BME280;53376;51.114;14.738;2022-09-13T19:49:14;97637.19;;;22.02;53.04
46476;BME280;53376;51.114;14.738;2022-09-13T19:51:54;97649.22;;;21.99;53.42
46476;BME280;53376;51.114;14.738;2022-09-13T19:54:22;97643.16;;;21.97;53.35
46476;BME280;53376;51.114;14.738;2022-09-13T19:57:03;97640.81;;;21.94;53.27
46476;BME280;53376;51.114;14.738;2022-09-13T19:59:31;97634.75;;;21.92;53.61
46476;BME280;53376;51.114;14.738;2022-09-13T20:02:12;97635.78;;;21.91;53.77
46476;BME280;53376;51.114;14.738;2022-09-13T20:11:59;97629.41;;;21.84;53.47
46476;BME280;53376;51.114;14.738;2022-09-13T20:14:39;97632.31;;;21.82;53.92
46476;BME280;53376;51.114;14.738;2022-09-13T20:17:07;97628.94;;;21.80;53.56
46476;BME280;53376;51.114;14.738;2022-09-13T20:19:49;97626.44;;;21.79;53.47
46476;BME280;53376;51.114;14.738;2022-09-13T20:22:16;97629.31;;;21.77;53.73
46476;BME280;53376;51.114;14.738;2022-09-13T20:25:05;97617.66;;;21.77;53.95
46476;BME280;53376;51.114;14.738;2022-09-13T20:41:23;97633.97;;;21.68;53.99
46476;BME280;53376;51.114;14.738;2022-09-13T20:44:04;97633.28;;;21.66;54.07
46476;BME280;53376;51.114;14.738;2022-09-13T20:46:31;97631.59;;;21.65;54.01
46476;BME280;53376;51.114;14.738;2022-09-13T20:49:11;97627.22;;;21.64;53.96
46476;BME280;53376;51.114;14.738;2022-09-13T20:51:39;97627.41;;;21.63;54.45
46476;BME280;53376;51.114;14.738;2022-09-13T21:08:14;97644.34;;;21.56;54.09
46476;BME280;53376;51.114;14.738;2022-09-13T21:10:55;97648.22;;;21.54;54.23
46476;BME280;53376;51.114;14.738;2022-09-13T21:13:37;97637.63;;;21.52;54.19
46476;BME280;53376;51.114;14.738;2022-09-13T21:16:14;97635.09;;;21.51;54.47
46476;BME280;53376;51.114;14.738;2022-09-13T21:18:58;97633.56;;;21.48;53.98
46476;BME280;53376;51.114;14.738;2022-09-13T21:21:30;97640.84;;;21.48;54.35
46476;BME280;53376;51.114;14.738;2022-09-13T21:34:41;97645.28;;;21.40;54.34
46476;BME280;53376;51.114;14.738;2022-09-13T21:37:23;97646.31;;;21.39;54.42
46476;BME280;53376;51.114;14.738;2022-09-13T21:39:50;97643.78;;;21.38;54.15
46476;BME280;53376;51.114;14.738;2022-09-13T21:42:32;97643.97;;;21.36;54.32
46476;BME280;53376;51.114;14.738;2022-09-13T21:45:00;97634.19;;;21.35;54.31
46476;BME280;53376;51.114;14.738;2022-09-13T22:01:38;97641.00;;;21.31;53.69
46476;BME280;53376;51.114;14.738;2022-09-13T22:04:15;97644.53;;;21.32;53.63
46476;BME280;53376;51.114;14.738;2022-09-13T22:10:37;97645.06;;;21.27;54.05
46476;BME280;53376;51.114;14.738;2022-09-13T22:27:13;97659.34;;;21.13;54.05
46476;BME280;53376;51.114;14.738;2022-09-13T22:29:53;97663.06;;;21.12;53.75
46476;BME280;53376;51.114;14.738;2022-09-13T22:32:33;97668.66;;;21.10;54.27
46476;BME280;53376;51.114;14.738;2022-09-13T22:35:00;97666.97;;;21.09;54.15
46476;BME280;53376;51.114;14.738;2022-09-13T22:37:40;97661.72;;;21.07;54.15
46476;BME280;53376;51.114;14.738;2022-09-13T22:40:08;97660.06;;;21.06;54.32
46476;BME280;53376;51.114;14.738;2022-09-13T22:53:22;97654.81;;;21.05;54.64
46476;BME280;53376;51.114;14.738;2022-09-13T22:56:05;97655.00;;;21.03;54.14
46476;BME280;53376;51.114;14.738;2022-09-13T22:58:43;97664.13;;;21.02;54.59
46476;BME280;53376;51.114;14.738;2022-09-13T23:01:27;97660.59;;;21.02;54.63
46476;BME280;53376;51.114;14.738;2022-09-13T23:04:02;97663.28;;;21.02;54.63
46476;BME280;53376;51.114;14.738;2022-09-13T23:06:40;97676.97;;;21.00;54.89
46476;BME280;53376;51.114;14.738;2022-09-13T23:19:24;97672.09;;;20.96;54.46
46476;BME280;53376;51.114;14.738;2022-09-13T23:22:04;97677.19;;;20.90;54.93
46476;BME280;53376;51.114;14.738;2022-09-13T23:24:44;97672.81;;;20.89;54.96
46476;BME280;53376;51.114;14.738;2022-09-13T23:27:11;97678.38;;;20.88;54.70
46476;BME280;53376;51.114;14.738;2022-09-13T23:29:51;97669.63;;;20.86;55.23
46476;BME280;53376;51.114;14.738;2022-09-13T23:32:18;97673.31;;;20.85;54.80
46476;BME280;53376;51.114;14.738;2022-09-13T23:35:00;97679.75;;;20.84;55.24
46476;BME280;53376;51.114;14.738;2022-09-13T23:37:27;97669.13;;;20.82;55.37
46476;BME280;53376;51.114;14.738;2022-09-13T23:46:57;97656.16;;;20.77;55.63
46476;BME280;53376;51.114;14.738;2022-09-13T23:49:37;97653.63;;;20.76;55.48
46476;BME280;53376;51.114;14.738;2022-09-13T23:52:20;97652.81;;;20.75;55.75
46476;BME280;53376;51.114;14.738;2022-09-13T23:54:47;97644.53;;;20.77;55.25
46476;BME280;53376;51.114;14.738;2022-09-13T23:57:27;97648.06;;;20.77;55.48
46476;BME280;53376;51.114;14.738;2022-09-13T23:59:54;97645.34;;;20.77;55.60
